createdAt,value
2018-07-04T00:00:31.928Z,18.94
2018-07-04T00:01:31.855Z,18.85
2018-07-04T00:02:31.764Z,18.90
2018-07-04T00:03:31.687Z,18.87
2018-07-04T00:04:31.613Z,18.87
2018-07-04T00:05:31.540Z,18.87
2018-07-04T00:06:31.467Z,18.87
2018-07-04T00:07:31.374Z,18.84
2018-07-04T00:08:31.300Z,18.87
2018-07-04T00:09:31.222Z,18.87
2018-07-04T00:10:31.148Z,18.88
2018-07-04T00:11:31.063Z,18.76
2018-07-04T00:12:30.988Z,18.80
2018-07-04T00:13:30.911Z,18.84
2018-07-04T00:14:30.836Z,18.73
2018-07-04T00:15:30.754Z,18.85
2018-07-04T00:16:30.680Z,18.78
2018-07-04T00:17:30.602Z,18.73
2018-07-04T00:18:30.527Z,18.85
2018-07-04T00:19:30.447Z,18.84
2018-07-04T00:20:30.360Z,18.85
2018-07-04T00:21:30.305Z,18.80
2018-07-04T00:22:30.216Z,18.80
2018-07-04T00:23:30.140Z,18.73
2018-07-04T00:24:30.052Z,18.73
2018-07-04T00:25:29.974Z,18.81
2018-07-04T00:26:29.899Z,18.72
2018-07-04T00:27:29.830Z,18.78
2018-07-04T00:28:29.741Z,18.75
2018-07-04T00:29:29.661Z,18.65
2018-07-04T00:30:29.587Z,18.70
2018-07-04T00:31:29.515Z,18.51
2018-07-04T00:32:29.429Z,18.67
2018-07-04T00:33:29.356Z,18.65
2018-07-04T00:34:29.281Z,18.54
2018-07-04T00:35:29.202Z,18.58
2018-07-04T00:36:29.128Z,18.58
2018-07-04T00:37:29.041Z,18.58
2018-07-04T00:38:28.966Z,18.51
2018-07-04T00:39:28.887Z,18.48
2018-07-04T00:40:28.801Z,18.44
2018-07-04T00:41:28.728Z,18.41
2018-07-04T00:42:28.653Z,18.39
2018-07-04T00:43:28.582Z,18.36
2018-07-04T00:44:28.495Z,18.39
2018-07-04T00:45:28.415Z,18.26
2018-07-04T00:46:28.355Z,18.30
2018-07-04T00:47:28.269Z,18.30
2018-07-04T00:48:28.183Z,18.27
2018-07-04T00:49:28.115Z,18.25
2018-07-04T00:50:28.031Z,18.26
2018-07-04T00:51:27.952Z,18.25
2018-07-04T00:52:27.877Z,18.27
2018-07-04T00:53:27.795Z,18.18
2018-07-04T00:54:27.720Z,18.27
2018-07-04T00:55:27.641Z,18.27
2018-07-04T00:56:27.554Z,18.20
2018-07-04T00:57:27.477Z,18.23
2018-07-04T00:58:27.402Z,18.20
2018-07-04T00:59:27.332Z,18.17
2018-07-04T01:00:27.244Z,18.23
2018-07-04T01:01:27.165Z,18.08
2018-07-04T01:02:27.090Z,18.15
2018-07-04T01:03:27.019Z,18.14
2018-07-04T01:04:26.932Z,18.15
2018-07-04T01:05:26.860Z,18.12
2018-07-04T01:06:26.785Z,18.07
2018-07-04T01:07:26.706Z,18.14
2018-07-04T01:08:26.617Z,18.11
2018-07-04T01:09:26.545Z,18.10
2018-07-04T01:10:26.471Z,18.10
2018-07-04T01:11:26.391Z,18.07
2018-07-04T01:12:26.305Z,18.07
2018-07-04T01:13:26.232Z,18.11
2018-07-04T01:14:26.157Z,18.02
2018-07-04T01:15:26.073Z,18.11
2018-07-04T01:16:25.998Z,18.11
2018-07-04T01:17:25.922Z,18.07
2018-07-04T01:18:25.874Z,18.10
2018-07-04T01:19:25.757Z,18.11
2018-07-04T01:20:25.682Z,18.10
2018-07-04T01:21:25.605Z,18.10
2018-07-04T01:22:25.530Z,18.20
2018-07-04T01:23:25.446Z,18.14
2018-07-04T01:24:25.372Z,18.20
2018-07-04T01:25:25.294Z,18.20
2018-07-04T01:26:25.218Z,18.23
2018-07-04T01:27:25.136Z,18.21
2018-07-04T01:28:25.062Z,18.10
2018-07-04T01:29:24.985Z,18.20
2018-07-04T01:30:24.897Z,18.15
2018-07-04T01:31:24.817Z,18.07
2018-07-04T01:32:24.742Z,18.11
2018-07-04T01:33:24.672Z,18.07
2018-07-04T01:34:24.585Z,18.05
2018-07-04T01:35:24.506Z,17.92
2018-07-04T01:36:24.432Z,17.93
2018-07-04T01:37:24.347Z,17.96
2018-07-04T01:38:24.270Z,17.99
2018-07-04T01:39:24.214Z,17.92
2018-07-04T01:40:24.124Z,17.89
2018-07-04T01:41:24.032Z,17.92
2018-07-04T01:42:23.956Z,17.93
2018-07-04T01:43:23.886Z,17.95
2018-07-04T01:44:23.802Z,17.82
2018-07-04T01:45:23.725Z,17.90
2018-07-04T01:46:23.650Z,17.77
2018-07-04T01:47:23.571Z,17.82
2018-07-04T01:48:23.492Z,17.70
2018-07-04T01:49:23.417Z,17.70
2018-07-04T01:50:23.339Z,17.68
2018-07-04T01:51:23.260Z,17.66
2018-07-04T01:52:23.173Z,17.59
2018-07-04T01:53:23.094Z,17.70
2018-07-04T01:54:23.019Z,17.64
2018-07-04T01:55:22.937Z,17.58
2018-07-04T01:56:22.862Z,17.52
2018-07-04T01:57:22.786Z,17.49
2018-07-04T01:58:22.963Z,17.48
2018-07-04T01:59:22.627Z,17.46
2018-07-04T02:00:22.552Z,17.40
2018-07-04T02:01:22.488Z,17.36
2018-07-04T02:02:22.388Z,17.28
2018-07-04T02:03:22.309Z,17.37
2018-07-04T02:04:22.236Z,17.28
2018-07-04T02:05:22.152Z,17.21
2018-07-04T02:06:22.089Z,17.25
2018-07-04T02:07:21.996Z,17.30
2018-07-04T02:08:21.921Z,17.22
2018-07-04T02:09:21.851Z,17.23
2018-07-04T02:10:21.762Z,17.25
2018-07-04T02:11:21.691Z,17.21
2018-07-04T02:12:21.605Z,17.16
2018-07-04T02:13:21.522Z,17.25
2018-07-04T02:14:21.451Z,17.15
2018-07-04T02:15:21.365Z,17.07
2018-07-04T02:16:21.293Z,17.14
2018-07-04T02:17:21.216Z,17.18
2018-07-04T02:18:21.143Z,17.04
2018-07-04T02:19:21.053Z,17.03
2018-07-04T02:20:20.975Z,17.11
2018-07-04T02:21:20.902Z,17.07
2018-07-04T02:22:20.815Z,17.04
2018-07-04T02:23:20.737Z,16.94
2018-07-04T02:24:20.662Z,16.96
2018-07-04T02:25:20.576Z,17.06
2018-07-04T02:26:20.500Z,17.04
2018-07-04T02:27:20.429Z,16.94
2018-07-04T02:28:20.344Z,16.89
2018-07-04T02:29:20.261Z,16.93
2018-07-04T02:30:20.188Z,16.91
2018-07-04T02:31:20.105Z,16.81
2018-07-04T02:32:20.029Z,16.91
2018-07-04T02:33:20.107Z,16.89
2018-07-04T02:34:19.880Z,16.73
2018-07-04T02:35:19.789Z,16.76
2018-07-04T02:36:19.716Z,16.73
2018-07-04T02:37:19.645Z,16.86
2018-07-04T02:38:19.806Z,16.70
2018-07-04T02:39:19.476Z,16.81
2018-07-04T02:40:19.402Z,16.81
2018-07-04T02:41:19.313Z,16.71
2018-07-04T02:42:19.238Z,16.75
2018-07-04T02:43:19.176Z,16.70
2018-07-04T02:44:19.079Z,16.73
2018-07-04T02:45:19.003Z,16.76
2018-07-04T02:46:18.941Z,16.67
2018-07-04T02:47:18.844Z,16.75
2018-07-04T02:48:19.073Z,16.73
2018-07-04T02:49:18.693Z,16.68
2018-07-04T02:50:18.606Z,16.68
2018-07-04T02:51:18.526Z,16.70
2018-07-04T02:52:18.451Z,16.76
2018-07-04T02:53:18.372Z,16.71
2018-07-04T02:54:18.294Z,16.63
2018-07-04T02:55:18.215Z,16.61
2018-07-04T02:56:18.127Z,16.63
2018-07-04T02:57:18.066Z,16.58
2018-07-04T02:58:17.992Z,16.57
2018-07-04T02:59:17.896Z,16.57
2018-07-04T03:00:17.823Z,16.45
2018-07-04T03:01:17.740Z,16.50
2018-07-04T03:02:17.668Z,16.41
2018-07-04T03:03:17.582Z,16.39
2018-07-04T03:04:17.507Z,16.34
2018-07-04T03:05:17.421Z,16.45
2018-07-04T03:06:17.347Z,16.33
2018-07-04T03:07:17.273Z,16.43
2018-07-04T03:08:17.182Z,16.39
2018-07-04T03:09:17.109Z,16.33
2018-07-04T03:10:17.037Z,16.30
2018-07-04T03:11:16.947Z,16.39
2018-07-04T03:12:16.868Z,16.27
2018-07-04T03:13:17.097Z,16.20
2018-07-04T03:14:16.716Z,16.27
2018-07-04T03:15:16.633Z,16.21
2018-07-04T03:16:16.560Z,16.24
2018-07-04T03:17:16.469Z,16.21
2018-07-04T03:18:16.394Z,16.31
2018-07-04T03:19:16.312Z,16.27
2018-07-04T03:20:16.236Z,16.27
2018-07-04T03:21:16.158Z,16.23
2018-07-04T03:22:16.084Z,16.33
2018-07-04T03:23:16.244Z,16.33
2018-07-04T03:24:15.919Z,16.23
2018-07-04T03:25:15.830Z,16.25
2018-07-04T03:26:15.755Z,16.27
2018-07-04T03:27:15.684Z,16.15
2018-07-04T03:28:15.898Z,16.17
2018-07-04T03:29:15.525Z,16.20
2018-07-04T03:30:15.450Z,16.25
2018-07-04T03:31:15.357Z,16.28
2018-07-04T03:32:15.283Z,16.23
2018-07-04T03:33:15.210Z,16.23
2018-07-04T03:34:15.123Z,16.21
2018-07-04T03:35:15.045Z,16.28
2018-07-04T03:36:14.958Z,16.25
2018-07-04T03:37:14.883Z,16.24
2018-07-04T03:38:15.064Z,16.23
2018-07-04T03:39:14.726Z,16.23
2018-07-04T03:40:14.652Z,16.25
2018-07-04T03:41:14.573Z,16.25
2018-07-04T03:42:14.485Z,16.28
2018-07-04T03:43:14.413Z,16.25
2018-07-04T03:44:14.338Z,16.24
2018-07-04T03:45:14.250Z,16.28
2018-07-04T03:46:14.176Z,16.28
2018-07-04T03:47:14.095Z,16.25
2018-07-04T03:48:14.008Z,16.25
2018-07-04T03:49:13.939Z,16.24
2018-07-04T03:50:13.864Z,16.20
2018-07-04T03:51:13.774Z,16.20
2018-07-04T03:52:13.700Z,16.25
2018-07-04T03:53:13.620Z,16.41
2018-07-04T03:54:13.535Z,16.25
2018-07-04T03:55:13.463Z,16.35
2018-07-04T03:56:13.387Z,16.24
2018-07-04T03:57:13.300Z,16.39
2018-07-04T03:58:13.224Z,16.20
2018-07-04T03:59:13.138Z,16.23
2018-07-04T04:00:13.063Z,16.30
2018-07-04T04:01:12.993Z,16.15
2018-07-04T04:02:12.905Z,16.31
2018-07-04T04:03:12.824Z,16.23
2018-07-04T04:04:12.750Z,16.21
2018-07-04T04:05:12.664Z,16.31
2018-07-04T04:06:12.589Z,16.34
2018-07-04T04:07:12.531Z,16.39
2018-07-04T04:08:12.424Z,16.31
2018-07-04T04:09:12.351Z,16.33
2018-07-04T04:10:12.276Z,16.45
2018-07-04T04:11:12.192Z,16.34
2018-07-04T04:12:12.117Z,16.41
2018-07-04T04:13:12.038Z,16.39
2018-07-04T04:14:11.951Z,16.42
2018-07-04T04:15:11.880Z,16.50
2018-07-04T04:16:11.811Z,16.58
2018-07-04T04:17:11.716Z,16.63
2018-07-04T04:18:11.648Z,16.67
2018-07-04T04:19:11.574Z,16.76
2018-07-04T04:20:11.475Z,16.73
2018-07-04T04:21:11.408Z,16.81
2018-07-04T04:22:11.331Z,16.79
2018-07-04T04:23:11.238Z,16.76
2018-07-04T04:24:11.177Z,16.86
2018-07-04T04:25:11.090Z,16.83
2018-07-04T04:26:11.001Z,16.93
2018-07-04T04:27:10.967Z,16.88
2018-07-04T04:28:10.854Z,17.01
2018-07-04T04:29:10.765Z,17.01
2018-07-04T04:30:10.690Z,17.11
2018-07-04T04:31:10.619Z,17.12
2018-07-04T04:32:10.532Z,17.15
2018-07-04T04:33:10.455Z,17.22
2018-07-04T04:34:10.380Z,17.31
2018-07-04T04:35:10.289Z,17.38
2018-07-04T04:36:10.213Z,17.41
2018-07-04T04:37:10.145Z,17.56
2018-07-04T04:38:10.060Z,17.70
2018-07-04T04:39:09.979Z,17.75
2018-07-04T04:40:09.903Z,17.82
2018-07-04T04:41:09.815Z,18.03
2018-07-04T04:42:09.752Z,18.65
2018-07-04T04:43:09.668Z,19.13
2018-07-04T04:44:09.593Z,19.61
2018-07-04T04:45:09.502Z,19.84
2018-07-04T04:46:09.427Z,20.20
2018-07-04T04:47:09.357Z,20.54
2018-07-04T04:48:09.269Z,20.95
2018-07-04T04:49:09.195Z,21.29
2018-07-04T04:50:09.121Z,21.61
2018-07-04T04:51:09.042Z,21.83
2018-07-04T04:52:08.956Z,22.14
2018-07-04T04:53:08.882Z,22.30
2018-07-04T04:54:08.808Z,22.49
2018-07-04T04:55:08.728Z,22.61
2018-07-04T04:56:08.642Z,22.70
2018-07-04T04:57:08.580Z,22.86
2018-07-04T04:58:08.492Z,22.97
2018-07-04T04:59:08.421Z,22.95
2018-07-04T05:00:08.346Z,23.13
2018-07-04T05:01:08.281Z,22.91
2018-07-04T05:02:08.193Z,22.73
2018-07-04T05:03:08.111Z,22.39
2018-07-04T05:04:08.047Z,21.96
2018-07-04T05:05:07.964Z,21.72
2018-07-04T05:06:07.884Z,21.56
2018-07-04T05:07:07.805Z,21.43
2018-07-04T05:08:07.730Z,21.49
2018-07-04T05:09:07.660Z,21.38
2018-07-04T05:10:07.585Z,21.43
2018-07-04T05:11:07.494Z,21.43
2018-07-04T05:12:07.421Z,21.49
2018-07-04T05:13:07.345Z,21.56
2018-07-04T05:14:07.280Z,21.40
2018-07-04T05:15:07.196Z,21.35
2018-07-04T05:16:07.121Z,21.38
2018-07-04T05:17:07.043Z,21.24
2018-07-04T05:18:06.980Z,21.22
2018-07-04T05:19:06.885Z,21.29
2018-07-04T05:20:06.812Z,21.19
2018-07-04T05:21:06.739Z,21.19
2018-07-04T05:22:06.662Z,21.25
2018-07-04T05:23:06.583Z,21.25
2018-07-04T05:24:06.509Z,21.17
2018-07-04T05:25:06.436Z,21.09
2018-07-04T05:26:06.361Z,21.07
2018-07-04T05:27:06.282Z,21.09
2018-07-04T05:28:06.194Z,21.09
2018-07-04T05:29:06.121Z,21.10
2018-07-04T05:30:06.046Z,21.07
2018-07-04T05:31:05.997Z,21.10
2018-07-04T05:32:05.900Z,21.13
2018-07-04T05:33:05.825Z,21.13
2018-07-04T05:34:05.751Z,21.22
2018-07-04T05:35:05.698Z,21.10
2018-07-04T05:36:05.778Z,21.10
2018-07-04T05:37:05.511Z,21.17
2018-07-04T05:38:05.433Z,21.12
2018-07-04T05:39:05.363Z,21.14
2018-07-04T05:40:05.290Z,21.25
2018-07-04T05:41:05.211Z,21.22
2018-07-04T05:42:05.194Z,21.22
2018-07-04T05:43:05.065Z,21.16
2018-07-04T05:44:04.979Z,21.25
2018-07-04T05:45:04.900Z,21.19
2018-07-04T05:46:04.851Z,21.31
2018-07-04T05:47:04.748Z,21.25
2018-07-04T05:48:04.671Z,21.24
2018-07-04T05:49:04.600Z,21.32
2018-07-04T05:50:04.526Z,21.47
2018-07-04T05:51:04.447Z,21.46
2018-07-04T05:52:04.372Z,21.40
2018-07-04T05:53:04.287Z,21.46
2018-07-04T05:54:04.212Z,21.44
2018-07-04T05:55:04.145Z,21.56
2018-07-04T05:56:04.076Z,21.58
2018-07-04T05:57:03.987Z,21.59
2018-07-04T05:58:03.910Z,21.64
2018-07-04T05:59:03.840Z,21.61
2018-07-04T06:00:03.764Z,21.58
2018-07-04T06:01:03.701Z,21.61
2018-07-04T06:02:03.605Z,21.69
2018-07-04T06:03:03.525Z,21.80
2018-07-04T06:04:03.451Z,21.80
2018-07-04T06:05:03.382Z,21.74
2018-07-04T06:06:03.304Z,21.90
2018-07-04T06:07:03.225Z,22.00
2018-07-04T06:08:03.150Z,22.09
2018-07-04T06:09:03.114Z,22.12
2018-07-04T06:10:02.999Z,22.25
2018-07-04T06:11:02.917Z,22.42
2018-07-04T06:12:02.841Z,22.46
2018-07-04T06:13:02.769Z,22.43
2018-07-04T06:14:02.689Z,22.43
2018-07-04T06:15:02.634Z,22.49
2018-07-04T06:16:02.544Z,22.47
2018-07-04T06:17:02.528Z,22.55
2018-07-04T06:18:02.393Z,22.57
2018-07-04T06:19:02.345Z,22.52
2018-07-04T06:20:02.239Z,22.60
2018-07-04T06:21:02.167Z,22.52
2018-07-04T06:22:02.080Z,22.54
2018-07-04T06:23:02.000Z,22.65
2018-07-04T06:24:01.938Z,22.68
2018-07-04T06:25:01.853Z,22.72
2018-07-04T06:26:01.777Z,22.76
2018-07-04T06:27:01.707Z,22.70
2018-07-04T06:28:01.646Z,22.70
2018-07-04T06:29:01.550Z,22.73
2018-07-04T06:30:01.477Z,22.83
2018-07-04T06:31:01.406Z,22.86
2018-07-04T06:32:01.358Z,22.94
2018-07-04T06:33:01.257Z,22.91
2018-07-04T06:34:01.183Z,22.92
2018-07-04T06:35:01.106Z,22.98
2018-07-04T06:36:01.030Z,22.95
2018-07-04T06:37:00.971Z,23.04
2018-07-04T06:38:00.881Z,23.10
2018-07-04T06:39:00.835Z,23.16
2018-07-04T06:40:00.729Z,23.23
2018-07-04T06:41:00.642Z,23.33
2018-07-04T06:42:00.570Z,23.38
2018-07-04T06:43:00.497Z,23.27
2018-07-04T06:44:00.426Z,23.39
2018-07-04T06:45:00.341Z,23.40
2018-07-04T06:46:00.266Z,23.39
2018-07-04T06:47:00.196Z,23.51
2018-07-04T06:48:00.121Z,23.57
2018-07-04T06:49:00.144Z,23.65
2018-07-04T06:49:59.972Z,23.73
2018-07-04T06:50:59.893Z,23.76
2018-07-04T06:51:59.818Z,23.70
2018-07-04T06:52:59.748Z,23.72
2018-07-04T06:53:59.672Z,23.75
2018-07-04T06:54:59.594Z,23.87
2018-07-04T06:55:59.519Z,23.94
2018-07-04T06:56:59.480Z,23.94
2018-07-04T06:57:59.367Z,23.88
2018-07-04T06:58:59.296Z,23.90
2018-07-04T06:59:59.222Z,23.95
2018-07-04T07:00:59.147Z,23.97
2018-07-04T07:01:59.127Z,24.06
2018-07-04T07:02:59.000Z,24.22
2018-07-04T07:03:58.924Z,24.22
2018-07-04T07:04:58.847Z,24.22
2018-07-04T07:05:58.772Z,24.34
2018-07-04T07:06:58.693Z,24.34
2018-07-04T07:07:58.618Z,24.39
2018-07-04T07:08:58.547Z,24.50
2018-07-04T07:09:58.473Z,24.49
2018-07-04T07:10:58.393Z,24.49
2018-07-04T07:11:58.319Z,24.55
2018-07-04T07:12:58.245Z,24.64
2018-07-04T07:13:58.171Z,24.71
2018-07-04T07:14:58.100Z,24.77
2018-07-04T07:15:58.025Z,24.77
2018-07-04T07:16:57.945Z,24.98
2018-07-04T07:17:57.872Z,24.99
2018-07-04T07:18:57.799Z,24.93
2018-07-04T07:19:57.724Z,24.80
2018-07-04T07:20:57.650Z,24.93
2018-07-04T07:21:57.576Z,25.00
2018-07-04T07:22:57.498Z,25.08
2018-07-04T07:23:57.423Z,25.09
2018-07-04T07:24:57.362Z,24.96
2018-07-04T07:25:57.302Z,24.93
2018-07-04T07:26:57.211Z,25.03
2018-07-04T07:27:57.135Z,25.06
2018-07-04T07:28:57.070Z,25.21
2018-07-04T07:29:56.997Z,25.28
2018-07-04T07:30:56.925Z,25.15
2018-07-04T07:31:56.841Z,25.23
2018-07-04T07:32:56.763Z,25.39
2018-07-04T07:33:56.718Z,25.57
2018-07-04T07:34:56.614Z,25.61
2018-07-04T07:35:56.541Z,25.70
2018-07-04T07:36:56.476Z,25.75
2018-07-04T07:37:56.402Z,25.90
2018-07-04T07:38:56.321Z,26.06
2018-07-04T07:39:56.246Z,26.21
2018-07-04T07:40:56.172Z,26.39
2018-07-04T07:41:56.099Z,26.45
2018-07-04T07:42:56.027Z,26.39
2018-07-04T07:43:55.964Z,26.35
2018-07-04T07:44:55.890Z,26.47
2018-07-04T07:45:55.816Z,26.54
2018-07-04T07:46:55.737Z,26.77
2018-07-04T07:47:55.664Z,27.06
2018-07-04T07:48:55.604Z,27.36
2018-07-04T07:49:55.527Z,27.72
2018-07-04T07:50:55.449Z,28.39
2018-07-04T07:51:55.385Z,29.14
2018-07-04T07:52:55.312Z,29.67
2018-07-04T07:53:55.238Z,29.92
2018-07-04T07:54:55.180Z,30.47
2018-07-04T07:55:55.106Z,30.82
2018-07-04T07:56:55.038Z,31.19
2018-07-04T07:57:54.963Z,31.26
2018-07-04T07:58:54.905Z,31.43
2018-07-04T07:59:54.833Z,31.13
2018-07-04T08:00:54.778Z,31.81
2018-07-04T08:01:54.696Z,32.18
2018-07-04T08:02:54.624Z,32.43
2018-07-04T08:03:54.561Z,32.37
2018-07-04T08:04:54.492Z,32.15
2018-07-04T08:05:54.487Z,31.78
2018-07-04T08:06:54.380Z,32.26
2018-07-04T08:07:54.288Z,32.22
2018-07-04T08:08:54.225Z,32.25
2018-07-04T08:09:54.175Z,31.95
2018-07-04T08:10:54.091Z,32.51
2018-07-04T08:11:54.029Z,32.88
2018-07-04T08:12:53.963Z,33.23
2018-07-04T08:13:53.905Z,33.21
2018-07-04T08:14:53.830Z,33.65
2018-07-04T08:15:53.768Z,33.53
2018-07-04T08:16:53.707Z,33.38
2018-07-04T08:17:53.646Z,32.99
2018-07-04T08:18:53.609Z,33.28
2018-07-04T08:19:53.502Z,33.29
2018-07-04T08:20:53.447Z,33.28
2018-07-04T08:21:53.382Z,33.37
2018-07-04T08:22:53.313Z,33.86
2018-07-04T08:23:53.239Z,33.86
2018-07-04T08:24:53.178Z,33.68
2018-07-04T08:25:53.115Z,33.53
2018-07-04T08:26:53.058Z,32.89
2018-07-04T08:27:53.008Z,32.25
2018-07-04T08:28:52.931Z,32.07
2018-07-04T08:29:52.866Z,32.56
2018-07-04T08:30:52.796Z,32.99
2018-07-04T08:31:52.769Z,33.56
2018-07-04T08:32:52.668Z,33.60
2018-07-04T08:33:52.608Z,33.87
2018-07-04T08:34:52.553Z,34.03
2018-07-04T08:35:52.482Z,33.28
2018-07-04T08:36:52.423Z,32.45
2018-07-04T08:37:52.359Z,31.99
2018-07-04T08:38:52.297Z,32.75
2018-07-04T08:39:52.219Z,33.18
2018-07-04T08:40:52.153Z,33.39
2018-07-04T08:41:52.090Z,33.63
2018-07-04T08:42:52.033Z,33.68
2018-07-04T08:43:51.969Z,33.84
2018-07-04T08:44:51.905Z,33.78
2018-07-04T08:45:51.845Z,33.39
2018-07-04T08:46:51.790Z,33.16
2018-07-04T08:47:51.723Z,33.50
2018-07-04T08:48:51.659Z,33.50
2018-07-04T08:49:51.595Z,33.35
2018-07-04T08:50:51.602Z,32.40
2018-07-04T08:51:51.455Z,33.16
2018-07-04T08:52:51.413Z,33.61
2018-07-04T08:53:51.336Z,34.19
2018-07-04T08:54:51.269Z,34.61
2018-07-04T08:55:51.207Z,34.97
2018-07-04T08:56:51.145Z,35.21
2018-07-04T08:57:51.080Z,34.82
2018-07-04T08:58:51.023Z,35.00
2018-07-04T08:59:50.960Z,34.70
2018-07-04T09:00:50.894Z,34.72
2018-07-04T09:01:50.831Z,34.92
2018-07-04T09:02:50.772Z,35.04
2018-07-04T09:03:50.710Z,34.96
2018-07-04T09:04:50.650Z,33.75
2018-07-04T09:05:50.588Z,34.09
2018-07-04T09:06:50.520Z,34.19
2018-07-04T09:07:50.459Z,33.22
2018-07-04T09:08:50.419Z,33.56
2018-07-04T09:09:50.335Z,34.09
2018-07-04T09:10:50.270Z,34.43
2018-07-04T09:11:50.247Z,34.46
2018-07-04T09:12:50.148Z,35.10
2018-07-04T09:13:50.084Z,35.33
2018-07-04T09:14:50.026Z,35.65
2018-07-04T09:15:49.964Z,34.97
2018-07-04T09:16:49.896Z,34.19
2018-07-04T09:17:49.835Z,32.93
2018-07-04T09:18:49.776Z,33.66
2018-07-04T09:19:49.718Z,33.59
2018-07-04T09:20:49.649Z,33.91
2018-07-04T09:21:49.592Z,34.05
2018-07-04T09:22:49.820Z,34.17
2018-07-04T09:23:49.458Z,34.21
2018-07-04T09:24:49.401Z,34.16
2018-07-04T09:25:49.339Z,33.98
2018-07-04T09:26:49.272Z,33.68
2018-07-04T09:27:49.214Z,34.28
2018-07-04T09:28:49.146Z,34.49
2018-07-04T09:29:49.084Z,34.32
2018-07-04T09:30:49.025Z,34.21
2018-07-04T09:31:48.964Z,34.05
2018-07-04T09:32:48.896Z,34.54
2018-07-04T09:33:48.834Z,34.88
2018-07-04T09:34:48.776Z,35.10
2018-07-04T09:35:48.714Z,34.56
2018-07-04T09:36:48.655Z,34.94
2018-07-04T09:37:48.591Z,35.19
2018-07-04T09:38:48.524Z,34.97
2018-07-04T09:39:48.462Z,34.91
2018-07-04T09:40:48.401Z,34.99
2018-07-04T09:41:48.340Z,33.87
2018-07-04T09:42:48.273Z,34.21
2018-07-04T09:43:48.219Z,34.82
2018-07-04T09:44:48.150Z,35.25
2018-07-04T09:45:48.088Z,35.11
2018-07-04T09:46:48.029Z,35.37
2018-07-04T09:47:48.023Z,35.15
2018-07-04T09:48:47.917Z,35.29
2018-07-04T09:49:47.855Z,35.45
2018-07-04T09:50:47.789Z,35.23
2018-07-04T09:51:47.725Z,35.07
2018-07-04T09:52:47.662Z,35.31
2018-07-04T09:53:47.599Z,34.88
2018-07-04T09:54:47.544Z,34.80
2018-07-04T09:55:47.478Z,35.33
2018-07-04T09:56:47.414Z,35.45
2018-07-04T09:57:47.351Z,35.29
2018-07-04T09:58:47.345Z,35.48
2018-07-04T09:59:47.243Z,34.69
2018-07-04T10:00:47.167Z,35.10
2018-07-04T10:01:47.105Z,35.36
2018-07-04T10:02:47.049Z,35.44
2018-07-04T10:03:46.990Z,35.47
2018-07-04T10:04:46.941Z,35.15
2018-07-04T10:05:46.873Z,34.78
2018-07-04T10:06:46.800Z,34.58
2018-07-04T10:07:46.738Z,34.44
2018-07-04T10:08:46.677Z,33.68
2018-07-04T10:09:46.616Z,33.94
2018-07-04T10:10:46.556Z,33.76
2018-07-04T10:11:46.495Z,33.82
2018-07-04T10:12:46.430Z,34.19
2018-07-04T10:13:46.364Z,33.91
2018-07-04T10:14:46.304Z,33.86
2018-07-04T10:15:46.243Z,33.63
2018-07-04T10:16:46.182Z,33.59
2018-07-04T10:17:46.120Z,33.41
2018-07-04T10:18:46.053Z,32.47
2018-07-04T10:19:45.991Z,32.14
2018-07-04T10:20:45.932Z,32.08
2018-07-04T10:21:45.872Z,31.69
2018-07-04T10:22:45.803Z,31.76
2018-07-04T10:23:45.741Z,31.92
2018-07-04T10:24:45.677Z,32.13
2018-07-04T10:25:45.602Z,31.96
2018-07-04T10:26:45.544Z,31.92
2018-07-04T10:27:45.494Z,32.00
2018-07-04T10:28:45.435Z,32.15
2018-07-04T10:29:45.355Z,32.25
2018-07-04T10:30:45.286Z,31.76
2018-07-04T10:31:45.224Z,31.81
2018-07-04T10:32:45.157Z,31.53
2018-07-04T10:33:45.095Z,31.44
2018-07-04T10:34:45.018Z,31.47
2018-07-04T10:35:44.953Z,31.72
2018-07-04T10:36:44.896Z,31.96
2018-07-04T10:37:44.821Z,32.14
2018-07-04T10:38:44.754Z,32.30
2018-07-04T10:39:44.692Z,32.25
2018-07-04T10:40:44.620Z,31.65
2018-07-04T10:41:44.556Z,31.13
2018-07-04T10:42:44.503Z,31.41
2018-07-04T10:43:44.435Z,31.46
2018-07-04T10:44:44.408Z,31.65
2018-07-04T10:45:44.299Z,31.69
2018-07-04T10:46:44.234Z,31.89
2018-07-04T10:47:44.171Z,32.22
2018-07-04T10:48:44.103Z,32.48
2018-07-04T10:49:44.036Z,32.94
2018-07-04T10:50:43.975Z,33.15
2018-07-04T10:51:43.900Z,33.61
2018-07-04T10:52:43.837Z,34.02
2018-07-04T10:53:43.774Z,34.59
2018-07-04T10:54:43.697Z,34.73
2018-07-04T10:55:43.631Z,35.11
2018-07-04T10:56:43.572Z,35.85
2018-07-04T10:57:43.507Z,36.09
2018-07-04T10:58:43.450Z,35.87
2018-07-04T10:59:43.388Z,35.70
2018-07-04T11:00:43.332Z,35.68
2018-07-04T11:01:43.269Z,36.01
2018-07-04T11:02:43.199Z,36.49
2018-07-04T11:03:43.335Z,36.46
2018-07-04T11:04:43.076Z,36.76
2018-07-04T11:06:25.136Z,35.70
2018-07-04T11:07:25.069Z,36.23
2018-07-04T11:08:25.007Z,36.56
2018-07-04T11:09:24.947Z,36.78
2018-07-04T11:10:24.884Z,36.46
2018-07-04T11:11:24.873Z,35.81
2018-07-04T11:12:24.765Z,35.77
2018-07-04T11:13:24.708Z,35.29
2018-07-04T11:14:24.646Z,35.75
2018-07-04T11:15:24.588Z,35.60
2018-07-04T11:16:24.525Z,35.53
2018-07-04T11:17:24.465Z,35.41
2018-07-04T11:18:24.403Z,35.28
2018-07-04T11:19:24.335Z,35.18
2018-07-04T11:20:24.273Z,35.29
2018-07-04T11:21:24.215Z,35.71
2018-07-04T11:22:24.189Z,35.87
2018-07-04T11:23:24.088Z,36.25
2018-07-04T11:24:24.024Z,36.54
2018-07-04T11:25:23.972Z,36.85
2018-07-04T11:26:23.909Z,36.93
2018-07-04T11:27:23.854Z,36.98
2018-07-04T11:28:23.841Z,37.31
2018-07-04T11:29:23.725Z,37.75
2018-07-04T11:30:23.661Z,38.15
2018-07-04T11:31:23.603Z,37.97
2018-07-04T11:32:23.540Z,38.23
2018-07-04T11:33:23.487Z,38.32
2018-07-04T11:34:23.426Z,37.86
2018-07-04T11:35:23.359Z,37.51
2018-07-04T11:36:23.299Z,37.41
2018-07-04T11:37:23.252Z,37.39
2018-07-04T11:38:23.212Z,36.98
2018-07-04T11:39:23.110Z,35.85
2018-07-04T11:40:23.060Z,35.89
2018-07-04T11:41:23.000Z,35.59
2018-07-04T11:42:22.937Z,35.65
2018-07-04T11:43:22.880Z,36.07
2018-07-04T11:44:22.817Z,36.65
2018-07-04T11:45:22.749Z,36.69
2018-07-04T11:46:22.687Z,36.93
2018-07-04T11:47:22.639Z,37.15
2018-07-04T11:48:22.579Z,37.63
2018-07-04T11:49:22.517Z,37.59
2018-07-04T11:50:22.456Z,37.94
2018-07-04T11:51:22.388Z,38.15
2018-07-04T11:52:22.326Z,38.04
2018-07-04T11:53:22.285Z,38.35
2018-07-04T11:54:22.218Z,38.01
2018-07-04T11:55:22.152Z,37.98
2018-07-04T11:56:22.089Z,36.94
2018-07-04T11:57:22.029Z,37.44
2018-07-04T11:58:21.962Z,37.46
2018-07-04T11:59:21.918Z,37.03
2018-07-04T12:00:21.855Z,36.68
2018-07-04T12:01:21.793Z,36.46
2018-07-04T12:02:21.728Z,36.59
2018-07-04T12:03:21.668Z,36.94
2018-07-04T12:04:21.607Z,36.93
2018-07-04T12:05:21.591Z,36.72
2018-07-04T12:06:21.492Z,37.17
2018-07-04T12:07:21.426Z,36.44
2018-07-04T12:08:21.363Z,36.38
2018-07-04T12:09:21.307Z,37.25
2018-07-04T12:10:21.246Z,37.32
2018-07-04T12:11:21.190Z,37.25
2018-07-04T12:12:21.129Z,37.41
2018-07-04T12:13:21.064Z,37.20
2018-07-04T12:14:21.002Z,37.17
2018-07-04T12:15:20.956Z,37.69
2018-07-04T12:16:20.882Z,38.04
2018-07-04T12:17:20.830Z,38.32
2018-07-04T12:18:20.767Z,37.85
2018-07-04T12:19:20.711Z,37.25
2018-07-04T12:20:20.659Z,37.46
2018-07-04T12:21:20.583Z,37.29
2018-07-04T12:22:20.519Z,37.03
2018-07-04T12:23:20.453Z,36.99
2018-07-04T12:24:20.403Z,36.99
2018-07-04T12:25:20.344Z,36.88
2018-07-04T12:26:20.283Z,36.31
2018-07-04T12:27:20.217Z,36.31
2018-07-04T12:28:20.153Z,35.90
2018-07-04T12:29:20.093Z,35.77
2018-07-04T12:30:20.031Z,36.50
2018-07-04T12:31:19.973Z,37.07
2018-07-04T12:32:19.922Z,37.34
2018-07-04T12:33:19.857Z,36.28
2018-07-04T12:34:19.795Z,36.64
2018-07-04T12:35:19.734Z,36.78
2018-07-04T12:36:19.670Z,36.93
2018-07-04T12:37:19.611Z,36.84
2018-07-04T12:38:19.550Z,36.90
2018-07-04T12:39:19.493Z,37.09
2018-07-04T12:40:19.433Z,37.56
2018-07-04T12:41:19.373Z,38.11
2018-07-04T12:42:19.312Z,38.26
2018-07-04T12:43:19.255Z,38.44
2018-07-04T12:44:19.183Z,38.61
2018-07-04T12:45:19.117Z,37.47
2018-07-04T12:46:19.056Z,37.86
2018-07-04T12:47:19.013Z,37.51
2018-07-04T12:48:18.947Z,37.86
2018-07-04T12:49:18.883Z,37.88
2018-07-04T12:50:18.825Z,38.25
2018-07-04T12:51:18.766Z,37.69
2018-07-04T12:52:18.700Z,37.43